createdAt,value
2019-05-05T00:00:50.254Z,2.73
2019-05-05T00:03:18.424Z,3.13
2019-05-05T00:05:30.339Z,4.20
2019-05-05T00:07:36.011Z,3.47
2019-05-05T00:09:41.468Z,2.83
2019-05-05T00:12:05.361Z,2.60
2019-05-05T00:14:38.560Z,2.70
2019-05-05T00:16:58.104Z,3.20
2019-05-05T00:19:04.801Z,2.57
2019-05-05T00:21:09.896Z,2.87
2019-05-05T00:23:15.313Z,2.13
2019-05-05T00:25:20.393Z,2.93
2019-05-05T00:27:25.944Z,3.53
2019-05-05T00:29:31.390Z,2.57
2019-05-05T00:31:36.956Z,2.57
2019-05-05T00:33:44.717Z,2.63
2019-05-05T00:35:49.680Z,2.57
2019-05-05T00:37:55.845Z,2.60
2019-05-05T00:40:01.218Z,1.90
2019-05-05T00:42:06.946Z,2.07
2019-05-05T00:44:12.035Z,2.10
2019-05-05T00:46:24.528Z,2.10
2019-05-05T00:48:42.020Z,1.83
2019-05-05T00:50:47.783Z,1.90
2019-05-05T00:52:54.931Z,2.10
2019-05-05T00:55:00.070Z,1.90
2019-05-05T00:57:05.228Z,2.20
2019-05-05T00:59:14.697Z,1.80
2019-05-05T01:02:00.500Z,1.77
2019-05-05T01:04:07.630Z,1.77
2019-05-05T01:06:18.829Z,1.60
2019-05-05T01:08:26.133Z,1.67
2019-05-05T01:10:31.946Z,1.70
2019-05-05T01:12:38.439Z,1.80
2019-05-05T01:14:44.763Z,1.43
2019-05-05T01:16:50.360Z,2.03
2019-05-05T01:18:55.781Z,1.60
2019-05-05T01:21:01.224Z,1.93
2019-05-05T01:23:08.929Z,1.70
2019-05-05T01:25:15.024Z,1.70
2019-05-05T01:27:20.507Z,1.40
2019-05-05T01:29:25.947Z,1.83
2019-05-05T01:31:31.392Z,1.80
2019-05-05T01:33:41.772Z,2.00
2019-05-05T01:35:46.929Z,2.13
2019-05-05T01:38:00.674Z,1.87
2019-05-05T01:40:26.500Z,1.57
2019-05-05T01:42:32.036Z,1.80
2019-05-05T01:44:37.537Z,1.70
2019-05-05T01:46:44.515Z,1.50
2019-05-05T01:48:49.807Z,1.53
2019-05-05T01:50:55.058Z,1.60
2019-05-05T01:53:00.482Z,1.47
2019-05-05T01:55:06.173Z,1.40
2019-05-05T01:57:12.145Z,1.70
2019-05-05T01:59:17.513Z,1.47
2019-05-05T02:01:26.403Z,1.53
2019-05-05T02:03:31.944Z,1.50
2019-05-05T02:05:37.444Z,1.50
2019-05-05T02:07:44.655Z,1.50
2019-05-05T02:09:49.831Z,1.20
2019-05-05T02:11:55.096Z,1.40
2019-05-05T02:14:00.516Z,1.40
2019-05-05T02:16:06.003Z,1.60
2019-05-05T02:18:11.647Z,1.10
2019-05-05T02:20:59.611Z,2.20
2019-05-05T02:23:04.784Z,1.70
2019-05-05T02:25:09.945Z,1.40
2019-05-05T02:27:15.879Z,1.70
2019-05-05T02:29:27.589Z,1.63
2019-05-05T02:31:55.357Z,1.73
2019-05-05T02:34:00.552Z,1.70
2019-05-05T02:36:06.157Z,1.10
2019-05-05T02:38:15.391Z,1.40
2019-05-05T02:40:19.825Z,1.30
2019-05-05T02:42:27.712Z,1.37
2019-05-05T02:44:34.860Z,1.37
2019-05-05T02:46:55.103Z,1.70
2019-05-05T02:49:05.450Z,1.70
2019-05-05T02:51:15.220Z,1.50
2019-05-05T02:53:21.508Z,1.50
2019-05-05T02:55:26.973Z,1.50
2019-05-05T02:57:34.555Z,1.60
2019-05-05T02:59:47.549Z,1.20
2019-05-05T03:02:10.300Z,1.30
2019-05-05T03:04:15.829Z,1.47
2019-05-05T03:06:21.009Z,1.63
2019-05-05T03:08:27.916Z,1.47
2019-05-05T03:10:34.118Z,1.33
2019-05-05T03:12:41.278Z,1.37
2019-05-05T03:14:48.177Z,1.60
2019-05-05T03:16:54.489Z,1.60
2019-05-05T03:18:59.845Z,1.40
2019-05-05T03:21:07.417Z,1.40
2019-05-05T03:23:13.714Z,1.57
2019-05-05T03:25:19.295Z,1.37
2019-05-05T03:27:25.024Z,1.50
2019-05-05T03:29:30.813Z,1.57
2019-05-05T03:31:36.302Z,1.70
2019-05-05T03:33:45.589Z,1.60
2019-05-05T03:35:49.449Z,1.87
2019-05-05T03:37:55.599Z,1.83
2019-05-05T03:40:07.743Z,1.70
2019-05-05T03:42:24.507Z,1.60
2019-05-05T03:44:33.782Z,1.50
2019-05-05T03:46:39.072Z,1.80
2019-05-05T03:48:44.505Z,1.30
2019-05-05T03:50:50.260Z,1.60
2019-05-05T03:52:56.214Z,1.50
2019-05-05T03:55:03.829Z,1.60
2019-05-05T03:57:09.992Z,1.67
2019-05-05T03:59:15.879Z,1.47
2019-05-05T04:01:54.591Z,1.50
2019-05-05T04:04:19.014Z,1.50
2019-05-05T04:06:37.978Z,1.30
2019-05-05T04:08:44.492Z,1.80
2019-05-05T04:10:50.434Z,1.53
2019-05-05T04:12:57.631Z,1.63
2019-05-05T04:15:03.952Z,1.37
2019-05-05T04:17:18.693Z,1.97
2019-05-05T04:19:25.173Z,1.80
2019-05-05T04:21:33.890Z,1.93
2019-05-05T04:23:37.036Z,1.93
2019-05-05T04:25:43.903Z,2.17
2019-05-05T04:27:49.465Z,1.97
2019-05-05T04:29:54.917Z,2.00
2019-05-05T04:31:59.931Z,2.17
2019-05-05T04:34:05.030Z,1.60
2019-05-05T04:36:10.252Z,1.87
2019-05-05T04:38:15.654Z,2.40
2019-05-05T04:40:20.921Z,1.83
2019-05-05T04:42:25.908Z,1.93
2019-05-05T04:44:31.409Z,2.00
2019-05-05T04:46:37.223Z,2.07
2019-05-05T04:48:52.045Z,1.97
2019-05-05T04:51:14.482Z,1.77
2019-05-05T04:53:25.301Z,1.83
2019-05-05T04:55:30.683Z,2.10
2019-05-05T04:57:36.027Z,2.40
2019-05-05T04:59:41.343Z,2.07
2019-05-05T05:01:48.081Z,2.40
2019-05-05T05:04:00.665Z,2.70
2019-05-05T05:06:15.219Z,2.17
2019-05-05T05:08:21.116Z,2.50
2019-05-05T05:10:26.356Z,2.37
2019-05-05T05:12:31.698Z,2.60
2019-05-05T05:14:36.853Z,2.33
2019-05-05T05:16:43.689Z,2.40
2019-05-05T05:18:49.633Z,2.23
2019-05-05T05:20:55.089Z,2.57
2019-05-05T05:23:00.382Z,2.63
2019-05-05T05:25:05.903Z,2.47
2019-05-05T05:27:11.183Z,2.30
2019-05-05T05:29:16.291Z,2.67
2019-05-05T05:31:21.363Z,2.80
2019-05-05T05:33:26.848Z,2.47
2019-05-05T05:35:33.663Z,2.60
2019-05-05T05:37:38.785Z,2.63
2019-05-05T05:40:03.935Z,2.20
2019-05-05T05:42:09.645Z,2.33
2019-05-05T05:44:21.687Z,2.87
2019-05-05T05:46:57.962Z,2.43
2019-05-05T05:49:17.298Z,2.60
2019-05-05T05:51:23.824Z,2.50
2019-05-05T05:53:29.653Z,2.93
2019-05-05T05:55:35.461Z,2.60
2019-05-05T05:57:40.394Z,2.60
2019-05-05T05:59:45.922Z,2.90
2019-05-05T06:01:51.381Z,2.77
2019-05-05T06:03:56.558Z,2.77
2019-05-05T06:06:02.017Z,2.73
2019-05-05T06:08:07.473Z,2.60
2019-05-05T06:10:22.216Z,2.57
2019-05-05T06:12:19.678Z,2.90
2019-05-05T06:14:24.876Z,2.90
2019-05-05T06:16:30.029Z,2.80
2019-05-05T06:18:35.211Z,2.77
2019-05-05T06:20:40.381Z,3.20
2019-05-05T06:22:45.899Z,2.80
2019-05-05T06:24:53.959Z,3.23
2019-05-05T06:26:58.621Z,3.23
2019-05-05T06:29:04.348Z,3.17
2019-05-05T06:31:09.836Z,2.97
2019-05-05T06:33:15.200Z,3.00
2019-05-05T06:35:20.305Z,3.07
2019-05-05T06:37:25.535Z,3.10
2019-05-05T06:39:33.340Z,3.20
2019-05-05T06:41:53.973Z,3.10
2019-05-05T06:44:33.896Z,3.07
2019-05-05T06:46:57.195Z,3.10
2019-05-05T06:49:04.216Z,3.20
2019-05-05T06:51:09.202Z,3.70
2019-05-05T06:53:14.813Z,3.33
2019-05-05T06:55:20.349Z,3.40
2019-05-05T06:57:25.416Z,3.63
2019-05-05T06:59:31.068Z,3.23
2019-05-05T07:01:36.228Z,3.27
2019-05-05T07:03:43.759Z,3.20
2019-05-05T07:05:48.950Z,3.63
2019-05-05T07:07:54.708Z,4.20
2019-05-05T07:09:59.879Z,4.57
2019-05-05T07:12:05.046Z,4.37
2019-05-05T07:14:11.136Z,3.83
2019-05-05T07:16:16.338Z,4.53
2019-05-05T07:18:21.648Z,4.57
2019-05-05T07:20:26.757Z,4.33
2019-05-05T07:22:34.524Z,4.80
2019-05-05T07:24:39.490Z,4.90
2019-05-05T07:26:44.805Z,5.40
2019-05-05T07:28:50.163Z,5.00
2019-05-05T07:30:55.793Z,5.37
2019-05-05T07:33:01.196Z,5.07
2019-05-05T07:35:28.162Z,5.40
2019-05-05T07:37:34.414Z,4.50
2019-05-05T07:39:39.606Z,4.83
2019-05-05T07:41:45.253Z,5.20
2019-05-05T07:43:50.529Z,5.17
2019-05-05T07:45:55.471Z,5.00
2019-05-05T07:48:01.271Z,5.07
2019-05-05T07:50:11.644Z,5.40
2019-05-05T07:52:15.268Z,4.27
2019-05-05T07:54:20.874Z,5.40
2019-05-05T07:56:25.996Z,5.60
2019-05-05T07:58:31.074Z,4.83
2019-05-05T08:00:36.841Z,5.10
2019-05-05T08:02:43.880Z,5.30
2019-05-05T08:04:50.311Z,4.97
2019-05-05T08:06:55.788Z,5.77
2019-05-05T08:09:00.958Z,5.93
2019-05-05T08:11:06.134Z,6.07
2019-05-05T08:13:11.214Z,6.30
2019-05-05T08:15:18.124Z,6.60
2019-05-05T08:18:00.834Z,5.80
2019-05-05T08:20:14.285Z,6.33
2019-05-05T08:22:19.495Z,7.53
2019-05-05T08:24:46.632Z,6.87
2019-05-05T08:26:59.898Z,6.63
2019-05-05T08:29:23.956Z,6.27
2019-05-05T08:31:55.067Z,7.10
2019-05-05T08:34:00.175Z,6.90
2019-05-05T08:36:05.320Z,6.60
2019-05-05T08:38:10.437Z,6.43
2019-05-05T08:40:15.954Z,6.37
2019-05-05T08:42:21.652Z,6.77
2019-05-05T08:44:26.642Z,7.70
2019-05-05T08:46:34.063Z,7.00
2019-05-05T08:48:39.115Z,8.20
2019-05-05T08:50:45.277Z,7.50
2019-05-05T08:52:50.526Z,7.40
2019-05-05T08:54:55.997Z,6.80
2019-05-05T08:57:04.063Z,6.80
2019-05-05T08:59:09.022Z,7.70
2019-05-05T09:01:14.964Z,7.33
2019-05-05T09:03:20.271Z,7.17
2019-05-05T09:05:25.469Z,7.40
2019-05-05T09:07:30.746Z,7.37
2019-05-05T09:09:36.116Z,7.17
2019-05-05T09:11:43.593Z,7.23
2019-05-05T09:13:48.594Z,6.90
2019-05-05T09:15:54.431Z,8.53
2019-05-05T09:18:00.405Z,7.37
2019-05-05T09:20:06.271Z,6.70
2019-05-05T09:22:11.451Z,5.53
2019-05-05T09:24:26.992Z,6.30
2019-05-05T09:26:50.840Z,5.50
2019-05-05T09:29:14.936Z,6.30
2019-05-05T09:31:20.505Z,5.53
2019-05-05T09:33:25.762Z,5.70
2019-05-05T09:35:30.970Z,5.23
2019-05-05T09:37:36.447Z,5.13
2019-05-05T09:39:43.688Z,6.40
2019-05-05T09:41:49.406Z,5.80
2019-05-05T09:43:54.842Z,4.83
2019-05-05T09:46:00.622Z,5.57
2019-05-05T09:48:06.110Z,4.73
2019-05-05T09:50:11.617Z,5.20
2019-05-05T09:52:17.009Z,4.90
2019-05-05T09:54:24.226Z,5.13
2019-05-05T09:56:29.565Z,4.40
2019-05-05T09:58:34.899Z,5.07
2019-05-05T10:00:44.026Z,3.97
2019-05-05T10:02:49.292Z,3.60
2019-05-05T10:04:55.091Z,4.33
2019-05-05T10:07:00.177Z,4.30
2019-05-05T10:09:08.038Z,4.40
2019-05-05T10:11:16.124Z,4.07
2019-05-05T10:13:20.112Z,3.53
2019-05-05T10:15:25.598Z,3.30
2019-05-05T10:17:30.775Z,3.27
2019-05-05T10:19:36.476Z,3.40
2019-05-05T10:21:41.681Z,2.83
2019-05-05T10:23:48.588Z,2.10
2019-05-05T10:25:57.355Z,2.63
2019-05-05T10:28:04.193Z,2.30
2019-05-05T10:30:10.692Z,2.20
2019-05-05T10:32:15.804Z,2.10
2019-05-05T10:34:24.065Z,2.10
2019-05-05T10:36:28.813Z,2.40
2019-05-05T10:38:35.639Z,2.00
2019-05-05T10:40:40.759Z,2.13
2019-05-05T10:42:53.816Z,2.57
2019-05-05T10:44:58.884Z,2.40
2019-05-05T10:47:04.710Z,2.40
2019-05-05T10:49:09.908Z,2.60
2019-05-05T10:51:15.128Z,2.43
2019-05-05T10:53:20.622Z,2.97
2019-05-05T10:55:25.803Z,3.50
2019-05-05T10:57:31.298Z,3.20
2019-05-05T10:59:37.117Z,3.43
2019-05-05T11:01:42.567Z,4.03
2019-05-05T11:03:47.979Z,3.77
2019-05-05T11:05:53.820Z,4.30
2019-05-05T11:07:59.206Z,3.77
2019-05-05T11:10:06.366Z,3.50
2019-05-05T11:12:11.644Z,3.70
2019-05-05T11:14:17.477Z,3.83
2019-05-05T11:16:22.823Z,3.80
2019-05-05T11:18:28.300Z,3.80
2019-05-05T11:20:34.218Z,3.30
2019-05-05T11:22:39.373Z,3.17
2019-05-05T11:24:57.270Z,3.90
2019-05-05T11:26:51.933Z,4.13
2019-05-05T11:28:58.295Z,3.87
2019-05-05T11:31:04.434Z,4.47
2019-05-05T11:33:23.725Z,3.80
2019-05-05T11:35:46.260Z,4.33
2019-05-05T11:37:51.442Z,3.87
2019-05-05T11:39:56.523Z,4.70
2019-05-05T11:42:04.234Z,5.20
2019-05-05T11:44:09.349Z,4.87
2019-05-05T11:46:15.318Z,4.60
2019-05-05T11:48:20.775Z,4.33
2019-05-05T11:50:26.128Z,3.67
2019-05-05T11:52:31.232Z,3.90
2019-05-05T11:54:37.153Z,3.73
2019-05-05T11:56:44.540Z,3.40
2019-05-05T11:58:49.238Z,3.50
2019-05-05T12:00:54.893Z,3.77
2019-05-05T12:03:00.117Z,4.10
2019-05-05T12:05:05.870Z,4.33
2019-05-05T12:07:10.910Z,4.50
2019-05-05T12:09:25.395Z,4.20
2019-05-05T12:11:30.695Z,4.33
2019-05-05T12:13:36.117Z,4.40
2019-05-05T12:15:44.625Z,5.13
2019-05-05T12:17:49.715Z,4.50
2019-05-05T12:19:54.807Z,3.70
2019-05-05T12:22:00.211Z,3.70
2019-05-05T12:24:14.243Z,4.27
2019-05-05T12:26:43.620Z,3.47
2019-05-05T12:29:06.721Z,3.70
2019-05-05T12:31:17.045Z,3.53
2019-05-05T12:33:24.219Z,3.03
2019-05-05T12:35:29.203Z,2.90
2019-05-05T12:37:34.629Z,3.40
2019-05-05T12:39:40.070Z,2.73
2019-05-05T12:41:45.620Z,3.40
2019-05-05T12:43:50.851Z,2.97
2019-05-05T12:46:05.497Z,3.10
2019-05-05T12:48:18.644Z,3.00
2019-05-05T12:50:24.575Z,3.10
2019-05-05T12:52:30.144Z,2.90
2019-05-05T12:54:35.504Z,2.70
2019-05-05T12:56:40.605Z,3.00
2019-05-05T12:58:46.103Z,2.63
2019-05-05T13:01:03.679Z,3.23
2019-05-05T13:03:09.107Z,4.17
2019-05-05T13:05:14.583Z,3.17
2019-05-05T13:07:19.752Z,3.47
2019-05-05T13:09:25.052Z,2.93
2019-05-05T13:11:30.543Z,3.67
2019-05-05T13:13:36.105Z,2.60
2019-05-05T13:15:41.272Z,2.67
2019-05-05T13:17:46.737Z,2.90
2019-05-05T13:19:57.994Z,2.63
2019-05-05T13:22:21.424Z,2.23
2019-05-05T13:24:48.310Z,2.10
2019-05-05T13:27:00.720Z,2.63
2019-05-05T13:29:06.096Z,2.50
2019-05-05T13:31:13.936Z,1.87
2019-05-05T13:33:18.731Z,1.80
2019-05-05T13:35:23.898Z,1.80
2019-05-05T13:37:28.997Z,2.20
2019-05-05T13:39:34.582Z,1.87
2019-05-05T13:41:40.307Z,1.90
2019-05-05T13:43:45.412Z,1.87
2019-05-05T13:45:59.999Z,1.83
2019-05-05T13:48:05.488Z,1.90
2019-05-05T13:50:15.645Z,1.80
2019-05-05T13:52:20.800Z,1.37
2019-05-05T13:54:25.779Z,1.73
2019-05-05T13:56:31.103Z,2.20
2019-05-05T13:58:36.460Z,2.23
2019-05-05T14:00:41.722Z,2.33
2019-05-05T14:02:47.400Z,1.80
2019-05-05T14:04:54.181Z,2.23
2019-05-05T14:06:59.540Z,1.70
2019-05-05T14:09:06.260Z,1.70
2019-05-05T14:11:14.067Z,2.00
2019-05-05T14:13:18.684Z,1.97
2019-05-05T14:15:23.863Z,2.03
2019-05-05T14:17:29.205Z,2.10
2019-05-05T14:19:34.255Z,1.70
2019-05-05T14:21:39.597Z,1.97
2019-05-05T14:24:03.909Z,2.53
2019-05-05T14:26:21.607Z,2.50
2019-05-05T14:28:18.203Z,2.83
2019-05-05T14:30:43.611Z,2.87
2019-05-05T14:32:49.135Z,2.37
2019-05-05T14:35:00.570Z,2.50
2019-05-05T14:37:24.839Z,3.80
2019-05-05T14:39:30.032Z,2.70
2019-05-05T14:41:35.342Z,3.20
2019-05-05T14:43:41.259Z,3.27
2019-05-05T14:45:46.935Z,3.80
2019-05-05T14:47:53.480Z,3.13
2019-05-05T14:49:58.801Z,2.90
2019-05-05T14:52:04.421Z,4.10
2019-05-05T14:54:10.831Z,3.97
2019-05-05T14:56:15.962Z,4.87
2019-05-05T14:58:23.134Z,4.27
2019-05-05T15:00:30.288Z,3.40
2019-05-05T15:02:36.229Z,3.03
2019-05-05T15:04:43.816Z,6.60
2019-05-05T15:06:59.364Z,6.47
2019-05-05T15:09:14.989Z,6.73
2019-05-05T15:11:28.535Z,10.97
2019-05-05T15:13:33.744Z,21.07
2019-05-05T15:15:38.920Z,5.80
2019-05-05T15:17:43.950Z,4.70
2019-05-05T15:19:48.916Z,4.70
2019-05-05T15:21:54.522Z,4.07
2019-05-05T15:23:59.888Z,2.63
2019-05-05T15:26:05.017Z,2.87
2019-05-05T15:28:10.623Z,2.20
2019-05-05T15:30:16.478Z,2.43
2019-05-05T15:32:23.907Z,5.20
2019-05-05T15:34:29.026Z,2.90
2019-05-05T15:36:34.394Z,2.50
2019-05-05T15:38:39.794Z,2.57
2019-05-05T15:40:47.925Z,1.87
2019-05-05T15:42:54.548Z,2.00
2019-05-05T15:44:59.683Z,2.40
2019-05-05T15:47:05.469Z,1.87
2019-05-05T15:49:10.813Z,1.80
2019-05-05T15:51:15.905Z,22.33
2019-05-05T15:53:23.418Z,4.73
2019-05-05T15:55:28.272Z,3.00
2019-05-05T15:57:34.018Z,2.10
2019-05-05T15:59:39.084Z,3.27
2019-05-05T16:01:44.192Z,3.10
2019-05-05T16:03:49.672Z,3.13
2019-05-05T16:05:54.706Z,4.00
2019-05-05T16:08:01.526Z,2.60
2019-05-05T16:10:07.584Z,2.10
2019-05-05T16:12:14.374Z,2.17
2019-05-05T16:14:20.346Z,2.93
2019-05-05T16:16:39.224Z,4.30
2019-05-05T16:18:48.728Z,3.33
2019-05-05T16:21:00.566Z,4.80
2019-05-05T16:23:16.729Z,3.10
2019-05-05T16:25:21.865Z,5.20
2019-05-05T16:27:28.086Z,3.10
2019-05-05T16:29:33.714Z,2.87
2019-05-05T16:31:39.127Z,2.97
2019-05-05T16:33:44.488Z,2.30
2019-05-05T16:35:49.580Z,3.40
2019-05-05T16:37:54.530Z,2.80
2019-05-05T16:39:59.685Z,2.80
2019-05-05T16:42:04.851Z,3.83
2019-05-05T16:44:10.349Z,6.97
2019-05-05T16:46:17.033Z,8.83
2019-05-05T16:48:25.361Z,5.90
2019-05-05T16:50:29.914Z,4.40
2019-05-05T16:52:40.073Z,3.00
2019-05-05T16:55:08.751Z,2.97
2019-05-05T16:57:14.484Z,4.07
2019-05-05T16:59:19.696Z,4.93
2019-05-05T17:01:24.896Z,2.77
2019-05-05T17:03:30.046Z,10.43
2019-05-05T17:05:35.787Z,5.27
2019-05-05T17:07:40.893Z,3.50
2019-05-05T17:09:45.990Z,2.90
2019-05-05T17:12:10.264Z,3.60
2019-05-05T17:14:23.461Z,2.83
2019-05-05T17:16:47.168Z,2.87
2019-05-05T17:18:58.319Z,3.00
2019-05-05T17:21:08.000Z,2.73
2019-05-05T17:23:15.497Z,3.00
2019-05-05T17:25:20.385Z,3.17
2019-05-05T17:27:25.576Z,3.10
2019-05-05T17:29:31.386Z,12.17
2019-05-05T17:31:36.768Z,4.80
2019-05-05T17:33:44.205Z,4.00
2019-05-05T17:35:50.014Z,3.27
2019-05-05T17:37:57.988Z,3.30
2019-05-05T17:40:17.254Z,3.00
2019-05-05T17:42:40.245Z,3.50
2019-05-05T17:45:14.189Z,3.83
2019-05-05T17:47:24.391Z,4.43
2019-05-05T17:49:56.335Z,3.50
2019-05-05T17:52:07.043Z,11.97
2019-05-05T17:54:33.770Z,14.80
2019-05-05T17:56:38.871Z,7.30
2019-05-05T17:58:44.570Z,7.00
2019-05-05T18:00:55.129Z,5.83
2019-05-05T18:03:00.237Z,5.50
2019-05-05T18:05:05.491Z,4.47
2019-05-05T18:07:28.525Z,16.40
2019-05-05T18:09:51.328Z,10.23
2019-05-05T18:12:20.063Z,13.80
2019-05-05T18:14:26.354Z,12.40
2019-05-05T18:16:31.362Z,7.23
2019-05-05T18:18:36.395Z,8.57
2019-05-05T18:20:41.833Z,9.83
2019-05-05T18:22:47.179Z,7.70
2019-05-05T18:24:53.984Z,6.67
2019-05-05T18:26:59.152Z,5.10
2019-05-05T18:29:04.374Z,7.27
2019-05-05T18:31:09.833Z,5.93
2019-05-05T18:33:15.296Z,5.63
2019-05-05T18:35:20.340Z,3.93
2019-05-05T18:37:25.636Z,6.07
2019-05-05T18:39:34.338Z,6.13
2019-05-05T18:41:45.236Z,14.10
2019-05-05T18:44:06.305Z,5.97
2019-05-05T18:46:11.325Z,4.50
2019-05-05T18:48:17.159Z,4.40
2019-05-05T18:50:24.259Z,4.80
2019-05-05T18:52:29.719Z,9.80
2019-05-05T18:54:34.997Z,6.43
2019-05-05T18:56:40.372Z,4.93
2019-05-05T18:58:45.832Z,4.37
2019-05-05T19:00:58.637Z,6.07
2019-05-05T19:03:17.978Z,10.33
2019-05-05T19:05:34.417Z,5.50
2019-05-05T19:07:55.249Z,5.17
2019-05-05T19:09:54.110Z,4.70
2019-05-05T19:11:57.687Z,4.27
2019-05-05T19:14:02.885Z,4.30
2019-05-05T19:16:08.078Z,5.70
2019-05-05T19:18:14.074Z,6.33
2019-05-05T19:20:28.173Z,6.87
2019-05-05T19:22:35.972Z,4.97
2019-05-05T19:24:40.738Z,6.27
2019-05-05T19:26:45.925Z,4.07
2019-05-05T19:28:51.017Z,3.77
2019-05-05T19:30:56.131Z,3.13
2019-05-05T19:33:01.663Z,4.20
2019-05-05T19:35:07.300Z,4.70
2019-05-05T19:37:13.986Z,7.20
2019-05-05T19:39:19.300Z,4.90
2019-05-05T19:41:24.479Z,4.37
2019-05-05T19:43:29.784Z,5.33
2019-05-05T19:45:34.819Z,7.97
2019-05-05T19:47:40.311Z,6.60
2019-05-05T19:49:51.631Z,4.93
2019-05-05T19:51:56.712Z,4.27
2019-05-05T19:54:03.555Z,3.93
2019-05-05T19:56:08.739Z,4.37
2019-05-05T19:58:14.335Z,4.90
2019-05-05T20:00:20.447Z,4.70
2019-05-05T20:02:25.786Z,4.30
2019-05-05T20:04:31.097Z,3.93
2019-05-05T20:06:37.034Z,3.63
2019-05-05T20:08:44.249Z,3.17
2019-05-05T20:10:49.043Z,3.97
2019-05-05T20:12:54.438Z,4.60
2019-05-05T20:15:00.431Z,3.57
2019-05-05T20:17:14.883Z,2.80
2019-05-05T20:19:20.303Z,2.90
2019-05-05T20:21:25.329Z,2.70
2019-05-05T20:23:30.718Z,2.90
2019-05-05T20:25:35.839Z,3.40
2019-05-05T20:27:41.544Z,2.97
2019-05-05T20:29:46.568Z,3.23
2019-05-05T20:31:51.687Z,3.27
2019-05-05T20:34:04.058Z,2.30
2019-05-05T20:36:14.496Z,3.67
2019-05-05T20:38:25.518Z,3.47
2019-05-05T20:40:34.988Z,3.20
2019-05-05T20:42:40.563Z,3.37
2019-05-05T20:44:46.315Z,3.10
2019-05-05T20:46:53.449Z,3.60
2019-05-05T20:48:58.568Z,3.80
2019-05-05T20:51:04.314Z,3.50
2019-05-05T20:53:09.870Z,3.43
2019-05-05T20:55:15.337Z,3.40
2019-05-05T20:57:20.733Z,3.50
2019-05-05T20:59:30.664Z,2.87
2019-05-05T21:01:34.097Z,3.63
2019-05-05T21:03:39.635Z,3.20
2019-05-05T21:05:45.103Z,3.10
2019-05-05T21:07:51.383Z,3.00
2019-05-05T21:09:56.466Z,3.07
2019-05-05T21:12:01.516Z,3.17
2019-05-05T21:14:06.662Z,3.10
2019-05-05T21:16:14.176Z,3.13
2019-05-05T21:18:20.347Z,2.90
2019-05-05T21:20:25.807Z,3.10
2019-05-05T21:22:40.555Z,2.53
2019-05-05T21:24:45.521Z,2.47
2019-05-05T21:26:59.755Z,2.67
2019-05-05T21:29:05.281Z,2.90
2019-05-05T21:31:10.705Z,2.63
2019-05-05T21:33:15.877Z,2.37
2019-05-05T21:35:21.312Z,2.47
2019-05-05T21:37:27.070Z,2.77
2019-05-05T21:39:34.758Z,2.60
2019-05-05T21:41:39.613Z,2.73
2019-05-05T21:43:44.969Z,3.03
2019-05-05T21:45:50.363Z,2.67
2019-05-05T21:47:56.418Z,2.20
2019-05-05T21:50:03.711Z,2.93
2019-05-05T21:52:27.779Z,2.90
2019-05-05T21:54:43.785Z,2.53
2019-05-05T21:57:20.260Z,2.50
2019-05-05T21:59:25.624Z,2.73
2019-05-05T22:01:39.248Z,2.97
2019-05-05T22:03:40.126Z,2.63
2019-05-05T22:05:45.595Z,2.87
2019-05-05T22:07:51.139Z,2.33
2019-05-05T22:09:56.563Z,2.90
2019-05-05T22:12:04.040Z,2.40
2019-05-05T22:14:09.170Z,2.50
2019-05-05T22:16:14.622Z,2.73
2019-05-05T22:18:19.803Z,2.67
2019-05-05T22:20:39.293Z,2.43
2019-05-05T22:22:45.244Z,2.97
2019-05-05T22:24:50.997Z,3.50
2019-05-05T22:26:56.164Z,2.77
2019-05-05T22:29:04.726Z,2.53
2019-05-05T22:31:09.371Z,2.97
2019-05-05T22:33:15.803Z,2.50
2019-05-05T22:35:21.271Z,2.43
2019-05-05T22:37:26.740Z,2.60
2019-05-05T22:39:33.835Z,2.77
2019-05-05T22:41:39.151Z,2.97
2019-05-05T22:43:44.377Z,2.40
2019-05-05T22:45:49.834Z,2.20
2019-05-05T22:47:54.981Z,2.57
2019-05-05T22:50:00.584Z,2.67
2019-05-05T22:52:06.022Z,2.37
2019-05-05T22:54:11.109Z,2.70
2019-05-05T22:56:16.262Z,2.13
2019-05-05T22:58:21.411Z,2.60
2019-05-05T23:00:29.652Z,2.40
2019-05-05T23:02:37.355Z,2.27
2019-05-05T23:04:54.549Z,2.37
2019-05-05T23:07:04.007Z,2.40
2019-05-05T23:09:14.688Z,2.63
2019-05-05T23:11:19.594Z,2.30
2019-05-05T23:13:24.760Z,2.50
2019-05-05T23:15:29.774Z,2.40
2019-05-05T23:17:43.664Z,2.37
2019-05-05T23:20:07.364Z,2.40
2019-05-05T23:22:24.090Z,2.60
2019-05-05T23:24:34.838Z,2.20
2019-05-05T23:26:40.525Z,2.30
2019-05-05T23:28:45.601Z,2.17
2019-05-05T23:30:50.954Z,2.27
2019-05-05T23:32:56.028Z,2.30
2019-05-05T23:35:01.299Z,2.33
2019-05-05T23:37:06.784Z,2.20
2019-05-05T23:39:13.599Z,2.63
2019-05-05T23:41:19.112Z,2.70
2019-05-05T23:43:24.917Z,2.00
2019-05-05T23:45:30.197Z,2.20
2019-05-05T23:47:35.814Z,2.13
2019-05-05T23:49:40.975Z,2.40
2019-05-05T23:51:46.218Z,2.13
2019-05-05T23:53:51.554Z,2.20
2019-05-05T23:55:57.179Z,2.17
2019-05-05T23:58:03.789Z,2.50
